createdAt,value
2023-08-12T00:01:07.610Z,74.28
2023-08-12T00:03:35.662Z,73.88
2023-08-12T00:06:06.404Z,74.13
2023-08-12T00:08:34.550Z,74.46
2023-08-12T00:11:02.557Z,74.04
2023-08-12T00:13:30.671Z,75.04
2023-08-12T00:15:58.652Z,75.32
2023-08-12T00:18:28.049Z,74.62
2023-08-12T00:20:56.256Z,74.87
2023-08-12T00:23:24.199Z,74.70
2023-08-12T00:25:52.132Z,75.03
2023-08-12T00:28:20.093Z,75.58
2023-08-12T00:30:50.379Z,75.74
2023-08-12T00:33:19.541Z,77.43
2023-08-12T00:35:49.129Z,76.82
2023-08-12T00:38:17.348Z,76.69
2023-08-12T00:40:45.358Z,76.45
2023-08-12T00:43:13.686Z,76.48
2023-08-12T00:45:42.717Z,76.61
2023-08-12T00:48:14.456Z,76.78
2023-08-12T00:50:43.731Z,76.37
2023-08-12T00:53:14.434Z,76.36
2023-08-12T00:55:42.600Z,76.42
2023-08-12T00:58:10.788Z,76.08
2023-08-12T01:00:39.486Z,76.61
2023-08-12T01:03:08.083Z,76.69
2023-08-12T01:05:38.482Z,77.45
2023-08-12T01:08:07.962Z,77.18
2023-08-12T01:10:39.051Z,77.95
2023-08-12T01:13:18.715Z,78.47
2023-08-12T01:15:47.596Z,78.87
2023-08-12T01:18:16.585Z,79.11
2023-08-12T01:20:45.167Z,79.28
2023-08-12T01:23:15.589Z,78.86
2023-08-12T01:25:44.654Z,79.12
2023-08-12T01:28:12.721Z,78.95
2023-08-12T01:30:50.293Z,78.76
2023-08-12T01:33:37.144Z,78.08
2023-08-12T01:36:11.647Z,77.47
2023-08-12T01:38:43.033Z,77.63
2023-08-12T01:41:13.560Z,78.50
2023-08-12T01:43:42.683Z,79.08
2023-08-12T01:46:11.973Z,79.96
2023-08-12T01:48:39.972Z,80.54
2023-08-12T01:51:09.211Z,81.04
2023-08-12T01:53:37.250Z,80.92
2023-08-12T01:56:06.666Z,81.20
2023-08-12T01:58:34.661Z,81.37
2023-08-12T02:01:02.737Z,81.44
2023-08-12T02:03:30.801Z,80.92
2023-08-12T02:05:58.908Z,80.94
2023-08-12T02:08:26.891Z,80.75
2023-08-12T02:10:54.873Z,81.33
2023-08-12T02:13:25.537Z,80.44
2023-08-12T02:15:53.754Z,80.43
2023-08-12T02:18:24.424Z,80.37
2023-08-12T02:20:52.522Z,80.85
2023-08-12T02:23:20.769Z,81.29
2023-08-12T02:25:49.508Z,81.14
2023-08-12T02:28:17.453Z,81.66
2023-08-12T02:30:46.813Z,82.04
2023-08-12T02:33:14.796Z,82.76
2023-08-12T02:35:43.896Z,83.29
2023-08-12T02:38:12.115Z,83.17
2023-08-12T02:40:40.113Z,83.44
2023-08-12T02:43:08.030Z,84.34
2023-08-12T02:45:36.009Z,83.95
2023-08-12T02:48:06.221Z,84.45
2023-08-12T02:50:34.239Z,84.16
2023-08-12T02:53:02.272Z,83.77
2023-08-12T02:55:30.287Z,84.07
2023-08-12T02:57:58.290Z,84.23
2023-08-12T03:00:26.306Z,84.45
2023-08-12T03:02:54.423Z,84.67
2023-08-12T03:05:24.095Z,84.45
2023-08-12T03:07:52.711Z,85.12
2023-08-12T03:10:20.998Z,84.58
2023-08-12T03:12:48.997Z,85.26
2023-08-12T03:15:17.711Z,84.53
2023-08-12T03:17:45.809Z,84.60
2023-08-12T03:20:13.883Z,84.80
2023-08-12T03:22:44.106Z,85.45
2023-08-12T03:25:12.091Z,85.06
2023-08-12T03:27:41.206Z,85.11
2023-08-12T03:30:12.960Z,85.78
2023-08-12T03:32:43.254Z,86.61
2023-08-12T03:35:12.054Z,86.57
2023-08-12T03:37:39.976Z,86.66
2023-08-12T03:40:11.124Z,86.40
2023-08-12T03:42:40.785Z,86.36
2023-08-12T03:45:09.826Z,86.14
2023-08-12T03:47:38.007Z,85.90
2023-08-12T03:50:07.442Z,86.05
2023-08-12T03:52:35.404Z,85.22
2023-08-12T03:55:03.602Z,85.51
2023-08-12T03:57:33.678Z,84.83
2023-08-12T04:00:02.215Z,84.44
2023-08-12T04:02:30.692Z,84.85
2023-08-12T04:04:58.682Z,85.49
2023-08-12T04:07:28.049Z,84.97
2023-08-12T04:09:55.968Z,84.83
2023-08-12T04:12:23.989Z,84.12
2023-08-12T04:14:53.363Z,84.58
2023-08-12T04:17:21.409Z,84.65
2023-08-12T04:19:50.467Z,84.63
2023-08-12T04:22:18.865Z,84.74
2023-08-12T04:24:46.834Z,84.75
2023-08-12T04:27:15.262Z,83.98
2023-08-12T04:29:43.491Z,83.53
2023-08-12T04:32:12.865Z,84.06
2023-08-12T04:34:41.634Z,84.02
2023-08-12T04:37:09.914Z,84.66
2023-08-12T04:39:38.137Z,83.99
2023-08-12T04:42:06.952Z,83.33
2023-08-12T04:44:34.996Z,82.94
2023-08-12T04:47:04.105Z,82.68
2023-08-12T04:49:35.765Z,82.63
2023-08-12T04:52:03.738Z,82.66
2023-08-12T04:54:31.997Z,82.77
2023-08-12T04:57:00.436Z,83.14
2023-08-12T04:59:28.430Z,84.07
2023-08-12T05:02:04.878Z,84.29
2023-08-12T05:04:36.748Z,84.14
2023-08-12T05:07:04.777Z,84.29
2023-08-12T05:09:33.105Z,84.58
2023-08-12T05:12:01.160Z,85.47
2023-08-12T05:14:29.215Z,85.39
2023-08-12T05:16:57.154Z,85.19
2023-08-12T05:19:25.133Z,85.50
2023-08-12T05:21:54.550Z,85.48
2023-08-12T05:24:22.653Z,84.88
2023-08-12T05:27:03.042Z,84.33
2023-08-12T05:29:31.247Z,84.25
2023-08-12T05:31:59.534Z,84.34
2023-08-12T05:34:28.170Z,84.33
2023-08-12T05:36:57.976Z,84.14
2023-08-12T05:39:25.935Z,84.20
2023-08-12T05:41:54.099Z,83.96
2023-08-12T05:44:22.121Z,83.05
2023-08-12T05:46:50.119Z,82.17
2023-08-12T05:49:18.072Z,80.44
2023-08-12T05:51:45.979Z,79.80
2023-08-12T05:54:15.300Z,77.86
2023-08-12T05:56:43.280Z,77.80
2023-08-12T05:59:11.511Z,77.22
2023-08-12T06:01:39.474Z,76.43
2023-08-12T06:04:07.869Z,76.20
2023-08-12T06:06:35.960Z,76.26
2023-08-12T06:09:04.867Z,75.74
2023-08-12T06:11:34.391Z,75.69
2023-08-12T06:14:02.400Z,75.69
2023-08-12T06:16:30.317Z,75.35
2023-08-12T06:18:58.276Z,74.90
2023-08-12T06:21:26.296Z,74.90
2023-08-12T06:23:54.287Z,74.56
2023-08-12T06:26:22.193Z,74.69
2023-08-12T06:28:51.575Z,73.92
2023-08-12T06:31:19.638Z,74.27
2023-08-12T06:33:47.626Z,73.78
2023-08-12T06:36:15.557Z,73.48
2023-08-12T06:38:43.491Z,73.46
2023-08-12T06:41:11.428Z,72.73
2023-08-12T06:43:39.455Z,72.32
2023-08-12T06:46:08.806Z,72.77
2023-08-12T06:48:36.795Z,72.60
2023-08-12T06:51:11.575Z,72.53
2023-08-12T06:53:40.128Z,71.60
2023-08-12T06:56:08.761Z,71.87
2023-08-12T06:58:36.685Z,71.31
2023-08-12T07:01:04.711Z,71.07
2023-08-12T07:03:34.869Z,70.69
2023-08-12T07:06:03.290Z,70.90
2023-08-12T07:08:31.207Z,70.22
2023-08-12T07:10:59.242Z,70.23
2023-08-12T07:13:27.210Z,69.85
2023-08-12T07:15:55.210Z,69.02
2023-08-12T07:18:24.097Z,68.69
2023-08-12T07:20:53.576Z,67.97
2023-08-12T07:23:21.512Z,67.51
2023-08-12T07:25:49.726Z,67.35
2023-08-12T07:28:17.916Z,67.18
2023-08-12T07:30:46.238Z,67.13
2023-08-12T07:33:17.180Z,67.47
2023-08-12T07:35:45.183Z,67.32
2023-08-12T07:38:14.754Z,66.56
2023-08-12T07:40:42.832Z,64.93
2023-08-12T07:43:10.824Z,63.77
2023-08-12T07:45:38.827Z,63.74
2023-08-12T07:48:07.411Z,63.30
2023-08-12T07:50:35.515Z,63.34
2023-08-12T07:53:03.540Z,62.47
2023-08-12T07:55:32.900Z,62.05
2023-08-12T07:58:00.848Z,60.75
2023-08-12T08:00:28.829Z,60.80
2023-08-12T08:02:56.861Z,59.18
2023-08-12T08:05:24.933Z,59.00
2023-08-12T08:07:52.966Z,58.63
2023-08-12T08:10:20.957Z,58.00
2023-08-12T08:12:50.286Z,56.21
2023-08-12T08:15:18.249Z,57.68
2023-08-12T08:17:46.353Z,58.46
2023-08-12T08:20:14.690Z,58.01
2023-08-12T08:22:42.661Z,57.34
2023-08-12T08:25:10.675Z,57.69
2023-08-12T08:27:41.069Z,57.71
2023-08-12T08:30:13.256Z,57.71
2023-08-12T08:32:41.290Z,57.33
2023-08-12T08:35:09.639Z,56.96
2023-08-12T08:37:37.648Z,59.45
2023-08-12T08:40:06.225Z,58.24
2023-08-12T08:42:34.762Z,57.22
2023-08-12T08:45:04.275Z,56.29
2023-08-12T08:47:34.063Z,56.06
2023-08-12T08:50:02.711Z,55.72
2023-08-12T08:52:31.080Z,56.95
2023-08-12T08:55:03.251Z,56.84
2023-08-12T08:57:39.929Z,55.57
2023-08-12T09:00:17.994Z,54.52
2023-08-12T09:02:49.677Z,54.19
2023-08-12T09:05:18.416Z,52.74
2023-08-12T09:07:46.801Z,51.37
2023-08-12T09:10:15.721Z,52.04
2023-08-12T09:12:45.556Z,52.88
2023-08-12T09:15:13.822Z,50.65
2023-08-12T09:17:41.935Z,51.08
2023-08-12T09:20:13.756Z,52.01
2023-08-12T09:22:42.365Z,51.87
2023-08-12T09:25:11.705Z,51.16
2023-08-12T09:27:39.979Z,51.84
2023-08-12T09:30:10.021Z,50.96
2023-08-12T09:32:39.911Z,50.68
2023-08-12T09:35:17.521Z,50.52
2023-08-12T09:37:47.047Z,49.63
2023-08-12T09:40:16.408Z,49.10
2023-08-12T09:42:47.669Z,48.66
2023-08-12T09:45:16.452Z,48.96
2023-08-12T09:47:44.523Z,48.08
2023-08-12T09:50:12.651Z,48.57
2023-08-12T09:52:41.623Z,48.15
2023-08-12T09:55:13.905Z,48.45
2023-08-12T09:57:45.422Z,47.71
2023-08-12T10:00:17.978Z,47.88
2023-08-12T10:02:46.888Z,48.02
2023-08-12T10:05:20.860Z,48.14
2023-08-12T10:07:49.676Z,48.05
2023-08-12T10:10:19.557Z,48.88
2023-08-12T10:12:50.310Z,47.26
2023-08-12T10:15:18.613Z,47.52
2023-08-12T10:17:47.468Z,48.82
2023-08-12T10:20:16.725Z,48.95
2023-08-12T10:22:46.408Z,47.45
2023-08-12T10:25:16.699Z,45.60
2023-08-12T10:27:46.263Z,46.01
2023-08-12T10:30:15.449Z,45.36
2023-08-12T10:32:43.617Z,45.93
2023-08-12T10:35:11.849Z,45.04
2023-08-12T10:37:39.885Z,45.03
2023-08-12T10:40:21.574Z,42.95
2023-08-12T10:42:52.503Z,41.75
2023-08-12T10:45:21.022Z,41.43
2023-08-12T10:47:54.232Z,41.49
2023-08-12T10:50:27.172Z,42.38
2023-08-12T10:52:55.967Z,41.88
2023-08-12T10:55:25.432Z,41.68
2023-08-12T10:57:57.315Z,41.37
2023-08-12T11:00:26.901Z,41.29
2023-08-12T11:02:57.492Z,42.30
2023-08-12T11:05:26.289Z,43.05
2023-08-12T11:07:59.723Z,44.08
2023-08-12T11:10:30.605Z,44.61
2023-08-12T11:13:02.014Z,46.14
2023-08-12T11:15:35.115Z,43.32
2023-08-12T11:18:05.638Z,43.70
2023-08-12T11:20:34.358Z,44.32
2023-08-12T11:23:03.401Z,44.27
2023-08-12T11:25:32.292Z,45.34
2023-08-12T11:28:01.985Z,45.16
2023-08-12T11:30:32.688Z,44.48
2023-08-12T11:33:02.380Z,43.74
2023-08-12T11:35:31.037Z,43.19
2023-08-12T11:38:00.589Z,43.12
2023-08-12T11:40:30.208Z,42.19
2023-08-12T11:42:58.356Z,41.99
2023-08-12T11:45:31.015Z,42.17
2023-08-12T11:47:59.350Z,42.66
2023-08-12T11:50:28.998Z,42.26
2023-08-12T11:52:58.240Z,42.45
2023-08-12T11:55:27.742Z,42.33
2023-08-12T11:57:55.760Z,42.66
2023-08-12T12:00:24.900Z,43.60
2023-08-12T12:02:56.700Z,43.11
2023-08-12T12:05:26.073Z,43.28
2023-08-12T12:07:54.697Z,47.35
2023-08-12T12:10:30.068Z,47.04
2023-08-12T12:13:01.870Z,46.94
2023-08-12T12:15:29.822Z,42.99
2023-08-12T12:17:59.263Z,41.10
2023-08-12T12:20:28.410Z,41.34
2023-08-12T12:22:56.945Z,42.39
2023-08-12T12:25:24.966Z,42.41
2023-08-12T12:27:55.283Z,42.75
2023-08-12T12:30:23.534Z,43.51
2023-08-12T12:32:52.645Z,43.21
2023-08-12T12:35:22.168Z,41.87
2023-08-12T12:37:50.179Z,41.22
2023-08-12T12:40:18.384Z,40.49
2023-08-12T12:42:46.309Z,40.38
2023-08-12T12:45:14.417Z,40.59
2023-08-12T12:47:42.413Z,40.13
2023-08-12T12:50:10.620Z,38.98
2023-08-12T12:52:40.916Z,38.33
2023-08-12T12:55:11.167Z,39.16
2023-08-12T12:57:39.146Z,38.94
2023-08-12T13:00:12.778Z,38.21
2023-08-12T13:02:41.891Z,38.24
2023-08-12T13:05:10.491Z,38.58
2023-08-12T13:07:39.820Z,38.33
2023-08-12T13:10:09.574Z,39.23
2023-08-12T13:12:37.681Z,38.22
2023-08-12T13:15:06.225Z,38.46
2023-08-12T13:17:34.332Z,39.25
2023-08-12T13:20:02.288Z,39.28
2023-08-12T13:22:30.305Z,38.64
2023-08-12T13:25:00.333Z,38.20
2023-08-12T13:27:29.003Z,38.47
2023-08-12T13:29:56.926Z,38.81
2023-08-12T13:32:25.200Z,39.16
2023-08-12T13:34:53.232Z,39.07
2023-08-12T13:37:21.416Z,39.25
2023-08-12T13:39:49.379Z,38.27
2023-08-12T13:42:18.669Z,38.75
2023-08-12T13:44:46.796Z,39.60
2023-08-12T13:47:15.096Z,39.41
2023-08-12T13:49:43.087Z,39.64
2023-08-12T13:52:11.398Z,39.49
2023-08-12T13:54:40.726Z,39.90
2023-08-12T13:57:08.729Z,40.09
2023-08-12T13:59:38.174Z,40.79
2023-08-12T14:02:06.377Z,39.99
2023-08-12T14:04:34.715Z,39.28
2023-08-12T14:07:02.865Z,39.44
2023-08-12T14:09:30.839Z,40.01
2023-08-12T14:11:59.077Z,40.35
2023-08-12T14:14:28.719Z,40.06
2023-08-12T14:16:58.384Z,40.97
2023-08-12T14:19:26.467Z,40.76
2023-08-12T14:21:54.445Z,41.97
2023-08-12T14:24:22.657Z,40.46
2023-08-12T14:26:50.683Z,40.81
2023-08-12T14:29:18.705Z,42.33
2023-08-12T14:31:46.730Z,42.07
2023-08-12T14:34:16.249Z,42.64
2023-08-12T14:36:44.334Z,42.87
2023-08-12T14:39:12.398Z,41.92
2023-08-12T14:41:40.419Z,41.24
2023-08-12T14:44:08.451Z,40.97
2023-08-12T14:46:36.504Z,40.91
2023-08-12T14:49:05.392Z,41.14
2023-08-12T14:51:34.874Z,41.04
2023-08-12T14:54:03.125Z,40.89
2023-08-12T14:56:31.155Z,40.98
2023-08-12T14:58:59.406Z,40.77
2023-08-12T15:01:29.068Z,40.60
2023-08-12T15:03:57.715Z,40.18
2023-08-12T15:06:25.938Z,40.43
2023-08-12T15:08:56.522Z,40.24
2023-08-12T15:11:25.071Z,40.49
2023-08-12T15:13:53.136Z,40.45
2023-08-12T15:16:21.257Z,40.31
2023-08-12T15:18:49.179Z,40.40
2023-08-12T15:21:17.940Z,40.66
2023-08-12T15:23:45.859Z,40.82
2023-08-12T15:26:19.141Z,40.85
2023-08-12T15:28:47.495Z,41.47
2023-08-12T15:31:16.026Z,40.56
2023-08-12T15:33:44.055Z,40.49
2023-08-12T15:36:11.961Z,41.04
2023-08-12T15:38:42.543Z,40.98
2023-08-12T15:41:16.598Z,40.71
2023-08-12T15:43:45.705Z,40.51
2023-08-12T15:46:14.242Z,39.86
2023-08-12T15:48:43.899Z,39.77
2023-08-12T15:51:12.024Z,39.81
2023-08-12T15:53:40.054Z,40.00
2023-08-12T15:56:08.072Z,40.04
2023-08-12T15:58:37.455Z,40.05
2023-08-12T16:01:05.569Z,40.61
2023-08-12T16:03:33.546Z,41.60
2023-08-12T16:06:01.746Z,41.58
2023-08-12T16:08:29.832Z,41.72
2023-08-12T16:10:57.823Z,42.63
2023-08-12T16:13:26.083Z,42.50
2023-08-12T16:15:55.986Z,42.60
2023-08-12T16:18:24.024Z,42.24
2023-08-12T16:20:52.004Z,42.38
2023-08-12T16:23:20.100Z,43.00
2023-08-12T16:25:48.339Z,42.51
2023-08-12T16:28:16.276Z,42.46
2023-08-12T16:30:44.197Z,42.88
2023-08-12T16:33:13.780Z,43.37
2023-08-12T16:35:41.857Z,42.93
2023-08-12T16:38:09.901Z,43.06
2023-08-12T16:40:38.480Z,43.00
2023-08-12T16:43:06.492Z,43.59
2023-08-12T16:45:34.764Z,43.16
2023-08-12T16:48:03.364Z,42.71
2023-08-12T16:50:33.228Z,43.10
2023-08-12T16:53:02.781Z,43.65
2023-08-12T16:55:32.146Z,43.85
2023-08-12T16:58:00.345Z,44.31
2023-08-12T17:00:28.363Z,43.95
2023-08-12T17:02:56.366Z,44.10
2023-08-12T17:05:24.406Z,44.11
2023-08-12T17:07:53.856Z,44.81
2023-08-12T17:10:21.943Z,45.29
2023-08-12T17:12:50.015Z,45.47
2023-08-12T17:15:17.980Z,44.86
2023-08-12T17:17:45.926Z,45.33
2023-08-12T17:20:14.053Z,45.53
2023-08-12T17:22:41.986Z,45.83
2023-08-12T17:25:12.024Z,46.09
2023-08-12T17:27:40.060Z,46.35
2023-08-12T17:30:09.187Z,46.70
2023-08-12T17:32:37.206Z,46.80
2023-08-12T17:35:05.637Z,47.29
2023-08-12T17:37:36.903Z,47.52
2023-08-12T17:40:05.882Z,47.95
2023-08-12T17:42:35.352Z,48.36
2023-08-12T17:45:03.417Z,48.98
2023-08-12T17:47:31.387Z,49.34
2023-08-12T17:50:00.854Z,49.54
2023-08-12T17:52:28.816Z,50.00
2023-08-12T17:54:57.041Z,50.61
2023-08-12T17:57:25.106Z,51.52
2023-08-12T17:59:54.771Z,51.92
2023-08-12T18:02:22.819Z,52.68
2023-08-12T18:04:51.010Z,52.72
2023-08-12T18:07:18.999Z,52.56
2023-08-12T18:09:47.037Z,53.58
2023-08-12T18:12:15.238Z,54.24
2023-08-12T18:14:43.478Z,53.77
2023-08-12T18:17:12.815Z,54.45
2023-08-12T18:19:40.810Z,55.15
2023-08-12T18:22:08.799Z,55.48
2023-08-12T18:24:36.931Z,55.58
2023-08-12T18:27:05.684Z,55.67
2023-08-12T18:29:33.882Z,55.42
2023-08-12T18:32:02.914Z,54.97
2023-08-12T18:34:32.509Z,55.55
2023-08-12T18:37:00.655Z,56.61
2023-08-12T18:39:28.819Z,58.18
2023-08-12T18:41:56.801Z,58.52
2023-08-12T18:44:25.141Z,58.38
2023-08-12T18:46:53.902Z,58.28
2023-08-12T18:49:22.404Z,58.35
2023-08-12T18:51:52.608Z,58.55
2023-08-12T18:54:21.359Z,58.54
2023-08-12T18:56:49.921Z,58.68
2023-08-12T18:59:18.398Z,59.05
2023-08-12T19:01:46.746Z,59.81
2023-08-12T19:04:14.716Z,59.85
2023-08-12T19:06:42.713Z,60.57
2023-08-12T19:09:12.274Z,61.34
2023-08-12T19:11:41.544Z,61.38
2023-08-12T19:14:09.678Z,62.35
2023-08-12T19:16:38.100Z,61.82
2023-08-12T19:19:06.196Z,61.72
2023-08-12T19:21:34.332Z,62.17
2023-08-12T19:24:02.553Z,62.85
2023-08-12T19:26:32.131Z,63.30
2023-08-12T19:29:01.712Z,63.42
2023-08-12T19:31:30.716Z,64.14
2023-08-12T19:33:59.521Z,64.33
2023-08-12T19:36:29.052Z,64.69
2023-08-12T19:38:58.644Z,64.48
2023-08-12T19:41:30.332Z,63.74
2023-08-12T19:44:02.032Z,62.38
2023-08-12T19:46:32.337Z,62.25
2023-08-12T19:49:01.558Z,62.09
2023-08-12T19:51:30.974Z,62.09
2023-08-12T19:53:59.573Z,62.65
2023-08-12T19:56:29.342Z,62.38
2023-08-12T19:58:57.384Z,62.36
2023-08-12T20:01:29.098Z,63.68
2023-08-12T20:03:57.645Z,64.30
2023-08-12T20:06:27.519Z,63.84
2023-08-12T20:08:58.366Z,63.97
2023-08-12T20:11:26.988Z,64.54
2023-08-12T20:13:55.682Z,65.14
2023-08-12T20:16:24.313Z,64.96
2023-08-12T20:18:55.452Z,65.31
2023-08-12T20:21:24.489Z,65.45
2023-08-12T20:23:53.410Z,65.58
2023-08-12T20:26:23.555Z,65.74
2023-08-12T20:28:52.984Z,64.31
2023-08-12T20:31:23.905Z,64.97
2023-08-12T20:33:53.915Z,64.35
2023-08-12T20:36:23.358Z,65.21
2023-08-12T20:38:52.076Z,65.47
2023-08-12T20:41:21.360Z,65.20
2023-08-12T20:43:49.832Z,65.52
2023-08-12T20:46:19.387Z,65.14
2023-08-12T20:48:48.443Z,64.10
2023-08-12T20:51:18.729Z,64.97
2023-08-12T20:53:47.760Z,64.70
2023-08-12T20:56:16.851Z,64.52
2023-08-12T20:58:45.321Z,64.51
2023-08-12T21:01:13.620Z,65.10
2023-08-12T21:03:41.846Z,65.90
2023-08-12T21:06:10.975Z,65.98
2023-08-12T21:08:40.259Z,66.35
2023-08-12T21:11:08.220Z,67.76
2023-08-12T21:13:36.205Z,68.16
2023-08-12T21:16:05.437Z,68.24
2023-08-12T21:18:33.506Z,68.08
2023-08-12T21:21:01.577Z,68.20
2023-08-12T21:23:29.513Z,68.35
2023-08-12T21:25:58.913Z,67.58
2023-08-12T21:30:54.599Z,68.58
2023-08-12T21:33:22.679Z,68.55
2023-08-12T21:35:51.203Z,69.85
2023-08-12T21:38:19.222Z,70.79
2023-08-12T21:40:47.226Z,71.38
2023-08-12T21:43:16.575Z,71.97
2023-08-12T21:45:44.624Z,73.03
2023-08-12T21:48:12.743Z,73.64
2023-08-12T21:50:40.694Z,74.37
2023-08-12T21:53:08.641Z,74.75
2023-08-12T21:55:36.618Z,74.17
2023-08-12T21:58:04.809Z,75.00
2023-08-12T22:00:34.112Z,74.91
2023-08-12T22:03:02.497Z,75.49
2023-08-12T22:05:31.646Z,75.81
2023-08-12T22:08:00.750Z,74.60
2023-08-12T22:10:28.663Z,74.96
2023-08-12T22:12:58.035Z,74.45
2023-08-12T22:15:26.455Z,74.49
2023-08-12T22:17:56.557Z,75.00
2023-08-12T22:20:24.768Z,75.11
2023-08-12T22:22:52.709Z,74.90
2023-08-12T22:25:20.709Z,75.21
2023-08-12T22:27:48.682Z,76.32
2023-08-12T22:30:16.709Z,74.92
2023-08-12T22:32:45.156Z,75.50
2023-08-12T22:35:14.601Z,75.82
2023-08-12T22:37:42.891Z,75.55
2023-08-12T22:40:11.120Z,75.23
2023-08-12T22:42:39.860Z,75.66
2023-08-12T22:45:09.590Z,76.53
2023-08-12T22:47:37.604Z,77.42
2023-08-12T22:50:07.413Z,77.38
2023-08-12T22:52:36.826Z,76.72
2023-08-12T22:55:05.639Z,77.24
2023-08-12T22:57:33.665Z,77.04
2023-08-12T23:00:01.703Z,77.70
2023-08-12T23:02:29.869Z,77.51
2023-08-12T23:04:59.005Z,77.95
2023-08-12T23:07:27.203Z,78.13
2023-08-12T23:09:59.822Z,78.43
2023-08-12T23:12:28.464Z,78.44
2023-08-12T23:14:56.730Z,79.56
2023-08-12T23:17:24.746Z,79.79
2023-08-12T23:19:52.817Z,79.53
2023-08-12T23:22:21.008Z,79.68
2023-08-12T23:24:49.004Z,79.42
2023-08-12T23:27:18.376Z,80.60
2023-08-12T23:29:46.426Z,81.24
2023-08-12T23:32:14.803Z,81.54
2023-08-12T23:34:43.030Z,81.13
2023-08-12T23:37:11.102Z,80.93
2023-08-12T23:39:39.091Z,81.18
2023-08-12T23:42:08.060Z,81.66
2023-08-12T23:44:37.386Z,81.86
2023-08-12T23:47:05.615Z,82.55
2023-08-12T23:49:34.374Z,83.01
2023-08-12T23:52:02.294Z,82.19
2023-08-12T23:54:30.191Z,82.28
2023-08-12T23:56:59.687Z,82.50
2023-08-12T23:59:27.705Z,82.47
